createdAt,value
2018-01-21T00:00:19.670Z,81.20
2018-01-21T00:02:49.161Z,77.20
2018-01-21T00:05:18.645Z,71.27
2018-01-21T00:07:48.098Z,77.63
2018-01-21T00:10:17.723Z,71.00
2018-01-21T00:12:47.602Z,73.70
2018-01-21T00:15:17.113Z,83.23
2018-01-21T00:17:46.946Z,68.33
2018-01-21T00:20:16.816Z,77.93
2018-01-21T00:22:47.683Z,72.70
2018-01-21T00:25:17.336Z,76.00
2018-01-21T00:27:46.871Z,75.63
2018-01-21T00:30:16.822Z,79.03
2018-01-21T00:32:46.343Z,67.80
2018-01-21T00:35:15.921Z,76.60
2018-01-21T00:37:45.557Z,79.93
2018-01-21T00:40:15.053Z,78.13
2018-01-21T00:42:44.899Z,69.43
2018-01-21T00:45:15.293Z,72.17
2018-01-21T00:47:45.894Z,80.77
2018-01-21T00:50:15.547Z,72.00
2018-01-21T00:52:45.296Z,86.33
2018-01-21T00:55:15.142Z,85.77
2018-01-21T00:57:44.917Z,81.97
2018-01-21T01:00:14.637Z,76.07
2018-01-21T01:02:44.285Z,65.53
2018-01-21T01:05:15.589Z,76.10
2018-01-21T01:07:45.074Z,73.03
2018-01-21T01:10:15.472Z,75.77
2018-01-21T01:12:44.959Z,77.20
2018-01-21T01:15:14.421Z,77.17
2018-01-21T01:17:44.792Z,77.63
2018-01-21T01:20:14.263Z,76.87
2018-01-21T01:22:44.235Z,77.67
2018-01-21T01:25:14.661Z,70.13
2018-01-21T01:27:44.281Z,78.60
2018-01-21T01:30:15.624Z,69.73
2018-01-21T01:32:45.386Z,78.13
2018-01-21T01:35:15.054Z,74.73
2018-01-21T01:37:45.062Z,84.07
2018-01-21T01:40:15.354Z,82.00
2018-01-21T01:42:45.018Z,70.40
2018-01-21T01:45:14.693Z,72.93
2018-01-21T01:47:44.982Z,80.40
2018-01-21T01:50:14.703Z,76.50
2018-01-21T01:52:44.492Z,79.20
2018-01-21T01:55:14.492Z,78.27
2018-01-21T01:57:44.402Z,77.47
2018-01-21T02:00:14.202Z,80.10
2018-01-21T02:02:44.211Z,80.97
2018-01-21T02:05:14.001Z,83.70
2018-01-21T02:07:43.506Z,81.40
2018-01-21T02:10:13.219Z,71.60
2018-01-21T02:12:42.883Z,84.83
2018-01-21T02:15:13.083Z,87.70
2018-01-21T02:17:42.587Z,74.57
2018-01-21T02:20:16.782Z,77.97
2018-01-21T02:22:47.071Z,80.70
2018-01-21T02:25:16.966Z,82.43
2018-01-21T02:27:48.263Z,76.87
2018-01-21T02:30:18.045Z,73.57
2018-01-21T02:32:48.793Z,83.90
2018-01-21T02:35:18.907Z,92.57
2018-01-21T02:37:48.649Z,76.20
2018-01-21T02:40:18.886Z,71.93
2018-01-21T02:42:48.306Z,80.17
2018-01-21T02:45:18.131Z,74.20
2018-01-21T02:47:47.897Z,76.00
2018-01-21T02:50:17.417Z,74.63
2018-01-21T02:52:47.843Z,83.57
2018-01-21T02:55:17.302Z,81.67
2018-01-21T02:57:46.947Z,83.57
2018-01-21T03:00:17.342Z,89.37
2018-01-21T03:02:47.159Z,94.27
2018-01-21T03:05:16.665Z,102.50
2018-01-21T03:07:46.418Z,86.83
2018-01-21T03:10:15.889Z,98.70
2018-01-21T03:12:45.316Z,85.67
2018-01-21T03:15:15.312Z,79.63
2018-01-21T03:17:45.596Z,90.43
2018-01-21T03:20:15.164Z,91.53
2018-01-21T03:22:44.585Z,88.67
2018-01-21T03:25:14.323Z,89.07
2018-01-21T03:27:43.834Z,85.60
2018-01-21T03:30:13.419Z,86.43
2018-01-21T03:32:43.061Z,88.70
2018-01-21T03:35:12.541Z,88.53
2018-01-21T03:37:42.078Z,85.43
2018-01-21T03:40:11.529Z,82.00
2018-01-21T03:42:41.173Z,100.43
2018-01-21T03:45:10.718Z,80.77
2018-01-21T03:47:40.276Z,91.37
2018-01-21T03:50:09.907Z,87.80
2018-01-21T03:52:39.585Z,78.83
2018-01-21T03:55:09.121Z,87.13
2018-01-21T03:57:39.375Z,79.20
2018-01-21T04:00:09.014Z,81.40
2018-01-21T04:02:38.597Z,68.83
2018-01-21T04:05:08.065Z,77.90
2018-01-21T04:07:37.643Z,79.50
2018-01-21T04:10:07.237Z,81.43
2018-01-21T04:12:36.851Z,80.33
2018-01-21T04:15:06.624Z,74.17
2018-01-21T04:17:37.403Z,82.27
2018-01-21T04:20:07.073Z,83.30
2018-01-21T04:22:36.860Z,79.60
2018-01-21T04:25:12.894Z,82.97
2018-01-21T04:27:42.397Z,74.23
2018-01-21T04:30:12.113Z,78.23
2018-01-21T04:32:41.901Z,84.33
2018-01-21T04:35:11.369Z,80.67
2018-01-21T04:37:40.834Z,72.70
2018-01-21T04:40:10.380Z,72.40
2018-01-21T04:42:39.823Z,71.57
2018-01-21T04:45:09.471Z,82.47
2018-01-21T04:47:39.149Z,86.77
2018-01-21T04:50:08.769Z,75.70
2018-01-21T04:52:38.225Z,75.00
2018-01-21T04:55:07.698Z,78.03
2018-01-21T04:57:37.254Z,81.23
2018-01-21T05:00:06.706Z,82.03
2018-01-21T05:02:36.366Z,68.17
2018-01-21T05:05:06.042Z,69.03
2018-01-21T05:07:35.561Z,79.53
2018-01-21T05:10:05.178Z,82.27
2018-01-21T05:12:34.827Z,69.73
2018-01-21T05:15:04.783Z,78.47
2018-01-21T05:17:35.033Z,83.80
2018-01-21T05:20:04.480Z,69.77
2018-01-21T05:22:33.974Z,66.30
2018-01-21T05:25:03.628Z,75.70
2018-01-21T05:27:33.121Z,75.97
2018-01-21T05:30:02.790Z,70.97
2018-01-21T05:32:33.341Z,69.83
2018-01-21T05:35:02.781Z,66.20
2018-01-21T05:37:32.274Z,78.60
2018-01-21T05:40:01.955Z,68.07
2018-01-21T05:42:31.541Z,82.77
2018-01-21T05:45:01.406Z,72.67
2018-01-21T05:47:30.917Z,78.87
2018-01-21T05:50:00.442Z,79.27
2018-01-21T05:52:29.922Z,77.20
2018-01-21T05:54:59.866Z,72.37
2018-01-21T05:57:29.310Z,79.97
2018-01-21T05:59:58.979Z,67.10
2018-01-21T06:02:28.473Z,71.83
2018-01-21T06:04:58.056Z,67.70
2018-01-21T06:07:27.861Z,65.87
2018-01-21T06:09:58.606Z,72.67
2018-01-21T06:12:28.558Z,72.73
2018-01-21T06:14:58.021Z,72.07
2018-01-21T06:17:27.546Z,70.60
2018-01-21T06:19:57.069Z,72.70
2018-01-21T06:22:26.890Z,67.23
2018-01-21T06:24:56.582Z,78.00
2018-01-21T06:27:26.049Z,71.50
2018-01-21T06:29:55.706Z,69.97
2018-01-21T06:32:25.133Z,76.27
2018-01-21T06:34:54.582Z,75.00
2018-01-21T06:37:24.241Z,70.30
2018-01-21T06:39:54.410Z,71.07
2018-01-21T06:42:23.859Z,74.00
2018-01-21T06:44:54.332Z,68.80
2018-01-21T06:47:24.018Z,71.40
2018-01-21T06:49:53.448Z,68.03
2018-01-21T06:52:22.964Z,62.27
2018-01-21T06:54:52.636Z,66.40
2018-01-21T06:57:22.129Z,72.93
2018-01-21T06:59:51.558Z,63.27
2018-01-21T07:02:21.091Z,64.53
2018-01-21T07:04:50.534Z,76.77
2018-01-21T07:07:19.997Z,62.57
2018-01-21T07:09:49.466Z,65.93
2018-01-21T07:12:18.941Z,63.00
2018-01-21T07:14:48.789Z,64.10
2018-01-21T07:17:18.260Z,66.20
2018-01-21T07:19:47.717Z,84.73
2018-01-21T07:22:17.177Z,65.23
2018-01-21T07:24:46.633Z,78.83
2018-01-21T07:27:16.059Z,70.20
2018-01-21T07:29:47.043Z,65.80
2018-01-21T07:32:16.647Z,66.00
2018-01-21T07:34:46.085Z,74.80
2018-01-21T07:37:15.603Z,74.60
2018-01-21T07:39:46.665Z,77.03
2018-01-21T07:42:16.138Z,70.10
2018-01-21T07:44:45.690Z,78.27
2018-01-21T07:47:15.153Z,79.33
2018-01-21T07:49:44.750Z,81.00
2018-01-21T07:52:14.234Z,80.03
2018-01-21T07:54:44.025Z,91.00
2018-01-21T07:57:13.559Z,84.53
2018-01-21T07:59:43.221Z,84.93
2018-01-21T08:02:13.904Z,83.53
2018-01-21T08:04:43.369Z,99.63
2018-01-21T08:07:12.821Z,86.97
2018-01-21T08:09:42.339Z,75.33
2018-01-21T08:12:11.871Z,76.70
2018-01-21T08:14:41.392Z,88.67
2018-01-21T08:17:11.051Z,82.00
2018-01-21T08:19:40.522Z,92.00
2018-01-21T08:22:10.770Z,87.63
2018-01-21T08:24:40.260Z,93.23
2018-01-21T08:27:09.826Z,97.23
2018-01-21T08:29:39.434Z,78.40
2018-01-21T08:32:09.051Z,99.93
2018-01-21T08:34:42.713Z,85.80
2018-01-21T08:39:22.236Z,94.83
2018-01-21T08:41:52.045Z,88.10
2018-01-21T08:44:23.093Z,86.10
2018-01-21T08:46:53.635Z,86.80
2018-01-21T08:49:24.112Z,86.27
2018-01-21T08:51:54.662Z,84.20
2018-01-21T08:54:24.450Z,85.70
2018-01-21T08:56:54.050Z,80.13
2018-01-21T08:59:29.810Z,87.37
2018-01-21T09:01:59.364Z,79.07
2018-01-21T09:04:29.629Z,84.30
2018-01-21T09:06:59.308Z,83.60
2018-01-21T09:09:30.261Z,84.73
2018-01-21T09:11:59.856Z,82.90
2018-01-21T09:14:29.716Z,75.60
2018-01-21T09:16:59.264Z,83.20
2018-01-21T09:19:28.741Z,77.60
2018-01-21T09:21:58.368Z,81.73
2018-01-21T09:24:28.006Z,72.57
2018-01-21T09:26:59.307Z,71.07
2018-01-21T09:29:29.038Z,77.07
2018-01-21T09:31:58.686Z,77.33
2018-01-21T09:34:28.360Z,75.63
2018-01-21T09:36:57.879Z,65.20
2018-01-21T09:39:27.870Z,72.07
2018-01-21T09:41:57.436Z,68.23
2018-01-21T09:44:26.976Z,66.60
2018-01-21T09:46:57.186Z,66.93
2018-01-21T09:49:26.767Z,93.10
2018-01-21T09:51:56.489Z,73.10
2018-01-21T09:54:26.662Z,67.13
2018-01-21T09:57:00.668Z,65.53
2018-01-21T09:59:31.854Z,57.20
2018-01-21T10:02:02.196Z,70.03
2018-01-21T10:04:32.839Z,70.00
2018-01-21T10:07:02.430Z,65.13
2018-01-21T10:09:32.341Z,63.23
2018-01-21T10:12:01.876Z,60.10
2018-01-21T10:14:31.425Z,59.50
2018-01-21T10:17:01.198Z,73.23
2018-01-21T10:19:30.927Z,72.57
2018-01-21T10:22:00.568Z,65.67
2018-01-21T10:24:30.071Z,64.87
2018-01-21T10:26:59.904Z,68.53
2018-01-21T10:29:29.416Z,79.33
2018-01-21T10:31:59.361Z,75.80
2018-01-21T10:34:29.445Z,69.37
2018-01-21T10:36:59.087Z,67.87
2018-01-21T10:39:28.631Z,73.80
2018-01-21T10:41:58.496Z,65.60
2018-01-21T10:44:28.106Z,67.97
2018-01-21T10:46:59.283Z,73.80
2018-01-21T10:49:28.909Z,70.00
2018-01-21T10:51:58.777Z,58.13
2018-01-21T10:54:28.265Z,53.90
2018-01-21T10:56:58.577Z,62.23
2018-01-21T10:59:28.640Z,52.03
2018-01-21T11:01:59.088Z,55.63
2018-01-21T11:04:28.780Z,53.27
2018-01-21T11:06:59.240Z,48.23
2018-01-21T11:09:28.908Z,53.50
2018-01-21T11:11:58.662Z,44.50
2018-01-21T11:14:28.813Z,41.20
2018-01-21T11:16:59.012Z,45.67
2018-01-21T11:19:28.979Z,42.37
2018-01-21T11:21:58.763Z,43.63
2018-01-21T11:24:28.291Z,39.07
2018-01-21T11:26:57.945Z,41.50
2018-01-21T11:29:27.518Z,41.03
2018-01-21T11:31:57.475Z,43.40
2018-01-21T11:34:28.523Z,65.57
2018-01-21T11:37:06.029Z,58.10
2018-01-21T11:39:45.017Z,66.10
2018-01-21T11:42:15.864Z,51.67
2018-01-21T11:44:47.696Z,69.23
2018-01-21T11:47:18.254Z,59.60
2018-01-21T11:49:49.548Z,58.00
2018-01-21T11:52:19.775Z,62.07
2018-01-21T11:54:50.882Z,63.30
2018-01-21T11:57:33.898Z,48.77
2018-01-21T12:00:18.235Z,64.33
2018-01-21T12:02:49.477Z,53.47
2018-01-21T12:05:19.586Z,53.43
2018-01-21T12:07:50.783Z,48.70
2018-01-21T12:10:20.610Z,50.93
2018-01-21T12:12:50.466Z,50.70
2018-01-21T12:15:20.823Z,52.33
2018-01-21T12:17:51.286Z,50.67
2018-01-21T12:20:22.215Z,47.60
2018-01-21T12:22:52.843Z,46.33
2018-01-21T12:25:23.734Z,48.60
2018-01-21T12:27:54.179Z,42.83
2018-01-21T12:30:24.520Z,41.97
2018-01-21T12:32:54.746Z,46.90
2018-01-21T12:35:24.575Z,45.83
2018-01-21T12:37:54.811Z,45.47
2018-01-21T12:40:24.912Z,38.03
2018-01-21T12:42:55.009Z,38.57
2018-01-21T12:45:25.885Z,46.23
2018-01-21T12:47:56.280Z,43.73
2018-01-21T12:50:26.870Z,44.27
2018-01-21T12:52:57.117Z,43.77
2018-01-21T12:55:27.549Z,40.80
2018-01-21T12:57:57.778Z,41.93
2018-01-21T13:00:28.160Z,49.33
2018-01-21T13:02:58.740Z,33.97
2018-01-21T13:05:28.995Z,35.30
2018-01-21T13:08:03.361Z,32.37
2018-01-21T13:10:35.667Z,36.17
2018-01-21T13:13:06.162Z,34.97
2018-01-21T13:15:36.075Z,38.40
2018-01-21T13:18:06.141Z,45.47
2018-01-21T13:20:36.268Z,32.17
2018-01-21T13:23:06.278Z,40.37
2018-01-21T13:25:36.133Z,35.80
2018-01-21T13:28:06.180Z,36.53
2018-01-21T13:30:37.093Z,32.40
2018-01-21T13:33:07.080Z,37.40
2018-01-21T13:35:37.277Z,44.07
2018-01-21T13:38:08.393Z,36.77
2018-01-21T13:40:38.650Z,43.97
2018-01-21T13:43:08.675Z,33.30
2018-01-21T13:45:38.360Z,39.10
2018-01-21T13:48:08.037Z,38.80
2018-01-21T13:50:38.040Z,35.73
2018-01-21T13:53:08.289Z,41.87
2018-01-21T13:55:40.091Z,35.47
2018-01-21T13:58:10.107Z,32.30
2018-01-21T14:00:40.889Z,38.73
2018-01-21T14:03:11.529Z,34.37
2018-01-21T14:05:41.636Z,38.97
2018-01-21T14:08:11.760Z,43.40
2018-01-21T14:10:42.030Z,39.30
2018-01-21T14:13:12.434Z,41.10
2018-01-21T14:15:43.321Z,34.23
2018-01-21T14:18:13.028Z,39.47
2018-01-21T14:20:43.102Z,36.77
2018-01-21T14:23:13.322Z,34.73
2018-01-21T14:25:44.600Z,38.50
2018-01-21T14:28:14.768Z,39.47
2018-01-21T14:30:45.997Z,42.07
2018-01-21T14:33:16.219Z,45.93
2018-01-21T14:35:46.264Z,35.23
2018-01-21T14:38:17.789Z,35.93
2018-01-21T14:40:47.674Z,32.90
2018-01-21T14:43:17.523Z,34.87
2018-01-21T14:45:47.832Z,30.67
2018-01-21T14:48:18.060Z,31.43
2018-01-21T14:50:48.085Z,30.13
2018-01-21T14:53:17.889Z,29.70
2018-01-21T14:55:49.247Z,27.27
2018-01-21T14:58:19.467Z,28.37
2018-01-21T15:00:49.657Z,26.00
2018-01-21T15:03:19.652Z,27.57
2018-01-21T15:05:49.511Z,31.43
2018-01-21T15:08:20.863Z,28.73
2018-01-21T15:10:50.875Z,32.87
2018-01-21T15:13:21.711Z,23.20
2018-01-21T15:15:52.220Z,25.37
2018-01-21T15:18:22.117Z,23.60
2018-01-21T15:20:52.171Z,28.83
2018-01-21T15:23:22.909Z,24.00
2018-01-21T15:25:53.189Z,25.37
2018-01-21T15:28:23.248Z,21.77
2018-01-21T15:30:53.261Z,20.57
2018-01-21T15:33:24.610Z,20.30
2018-01-21T15:35:55.191Z,21.97
2018-01-21T15:38:25.159Z,25.90
2018-01-21T15:40:55.069Z,23.23
2018-01-21T15:43:25.700Z,21.17
2018-01-21T15:45:55.716Z,22.50
2018-01-21T15:48:25.632Z,19.07
2018-01-21T15:50:56.879Z,19.50
2018-01-21T15:53:27.616Z,21.37
2018-01-21T15:55:57.526Z,18.37
2018-01-21T15:58:28.340Z,21.13
2018-01-21T16:00:58.435Z,21.40
2018-01-21T16:03:28.292Z,18.30
2018-01-21T16:05:58.054Z,16.63
2018-01-21T16:08:27.978Z,22.20
2018-01-21T16:10:57.835Z,23.67
2018-01-21T16:13:27.847Z,23.03
2018-01-21T16:15:58.046Z,23.13
2018-01-21T16:18:28.086Z,23.30
2018-01-21T16:20:58.825Z,22.80
2018-01-21T16:23:29.449Z,25.07
2018-01-21T16:26:00.554Z,26.00
2018-01-21T16:28:30.610Z,27.40
2018-01-21T16:31:01.242Z,29.47
2018-01-21T16:33:31.870Z,32.97
2018-01-21T16:36:02.307Z,34.60
2018-01-21T16:39:08.053Z,32.80
2018-01-21T16:41:38.332Z,32.70
2018-01-21T16:44:08.579Z,35.60
2018-01-21T16:46:39.063Z,32.67
2018-01-21T16:49:09.780Z,33.17
2018-01-21T16:51:39.834Z,29.40
2018-01-21T16:54:09.860Z,31.20
2018-01-21T16:56:40.677Z,31.57
2018-01-21T16:59:10.950Z,31.30
2018-01-21T17:01:41.643Z,27.37
2018-01-21T17:04:12.018Z,32.07
2018-01-21T17:06:42.641Z,35.27
2018-01-21T17:09:12.793Z,32.93
2018-01-21T17:11:43.673Z,35.50
2018-01-21T17:14:14.930Z,33.53
2018-01-21T17:16:50.908Z,35.00
2018-01-21T17:19:21.326Z,36.67
2018-01-21T17:21:51.174Z,36.67
2018-01-21T17:24:21.516Z,34.07
2018-01-21T17:26:51.377Z,31.73
2018-01-21T17:29:21.606Z,43.40
2018-01-21T17:31:51.621Z,33.73
2018-01-21T17:34:21.541Z,33.93
2018-01-21T17:36:52.140Z,35.17
2018-01-21T17:39:21.936Z,34.37
2018-01-21T17:41:51.886Z,39.07
2018-01-21T17:44:21.856Z,40.93
2018-01-21T17:46:51.990Z,37.07
2018-01-21T17:49:22.038Z,41.20
2018-01-21T17:51:52.058Z,40.67
2018-01-21T17:54:22.589Z,48.30
2018-01-21T17:56:52.499Z,39.40
2018-01-21T17:59:22.207Z,38.60
2018-01-21T18:01:52.123Z,37.60
2018-01-21T18:04:22.441Z,41.17
2018-01-21T18:06:52.651Z,49.10
2018-01-21T18:09:23.402Z,43.30
2018-01-21T18:11:53.212Z,42.00
2018-01-21T18:14:23.443Z,48.47
2018-01-21T18:16:53.554Z,44.40
2018-01-21T18:19:25.014Z,41.30
2018-01-21T18:21:55.024Z,47.50
2018-01-21T18:24:25.098Z,50.57
2018-01-21T18:26:55.055Z,48.57
2018-01-21T18:29:25.832Z,56.70
2018-01-21T18:31:55.658Z,45.33
2018-01-21T18:34:25.617Z,52.20
2018-01-21T18:36:55.632Z,48.00
2018-01-21T18:39:25.500Z,50.27
2018-01-21T18:41:55.668Z,49.30
2018-01-21T18:44:25.743Z,47.70
2018-01-21T18:46:55.986Z,45.20
2018-01-21T18:49:26.029Z,48.97
2018-01-21T18:51:56.465Z,49.40
2018-01-21T18:54:26.774Z,57.53
2018-01-21T18:56:57.724Z,56.70
2018-01-21T18:59:27.838Z,56.63
2018-01-21T19:01:57.738Z,51.53
2018-01-21T19:04:28.479Z,57.87
2018-01-21T19:06:59.629Z,54.03
2018-01-21T19:09:30.970Z,54.10
2018-01-21T19:12:01.243Z,50.93
2018-01-21T19:14:32.578Z,54.30
2018-01-21T19:17:02.926Z,52.60
2018-01-21T19:19:33.933Z,58.33
2018-01-21T19:22:04.548Z,67.43
2018-01-21T19:24:35.638Z,59.40
2018-01-21T19:27:05.859Z,71.47
2018-01-21T19:29:36.801Z,58.67
2018-01-21T19:32:07.155Z,64.13
2018-01-21T19:34:38.090Z,60.03
2018-01-21T19:37:09.395Z,58.27
2018-01-21T19:39:39.993Z,63.30
2018-01-21T19:42:10.608Z,66.97
2018-01-21T19:44:42.116Z,65.23
2018-01-21T19:47:12.726Z,77.93
2018-01-21T19:49:43.312Z,71.13
2018-01-21T19:52:20.697Z,69.67
2018-01-21T19:54:57.940Z,74.47
2018-01-21T19:57:28.818Z,74.50
2018-01-21T19:59:59.467Z,72.90
2018-01-21T20:02:29.962Z,77.73
2018-01-21T20:05:00.799Z,78.80
2018-01-21T20:07:31.146Z,85.20
2018-01-21T20:10:01.739Z,82.57
2018-01-21T20:12:33.044Z,74.67
2018-01-21T20:15:04.071Z,83.93
2018-01-21T20:17:35.592Z,90.93
2018-01-21T20:20:06.469Z,67.30
2018-01-21T20:22:36.476Z,85.03
2018-01-21T20:25:06.612Z,69.70
2018-01-21T20:27:36.645Z,74.00
2018-01-21T20:30:07.150Z,75.57
2018-01-21T20:32:38.092Z,93.30
2018-01-21T20:35:08.563Z,86.77
2018-01-21T20:37:38.714Z,77.30
2018-01-21T20:40:08.948Z,80.00
2018-01-21T20:42:40.207Z,78.90
2018-01-21T20:45:10.559Z,75.57
2018-01-21T20:47:41.140Z,87.77
2018-01-21T20:50:12.090Z,86.20
2018-01-21T20:52:49.482Z,73.40
2018-01-21T20:55:21.447Z,91.23
2018-01-21T20:57:51.568Z,75.97
2018-01-21T21:00:23.282Z,65.30
2018-01-21T21:02:53.609Z,76.03
2018-01-21T21:05:23.600Z,74.93
2018-01-21T21:07:53.466Z,77.70
2018-01-21T21:10:23.792Z,83.30
2018-01-21T21:12:54.913Z,74.13
2018-01-21T21:15:25.902Z,75.77
2018-01-21T21:17:56.004Z,72.23
2018-01-21T21:20:26.195Z,66.90
2018-01-21T21:22:56.851Z,82.10
2018-01-21T21:25:27.580Z,73.40
2018-01-21T21:27:58.098Z,81.27
2018-01-21T21:30:29.118Z,75.10
2018-01-21T21:32:59.495Z,68.20
2018-01-21T21:35:29.725Z,71.07
2018-01-21T21:38:00.176Z,79.83
2018-01-21T21:40:30.373Z,65.50
2018-01-21T21:43:00.761Z,74.97
2018-01-21T21:45:31.727Z,68.73
2018-01-21T21:48:02.949Z,66.33
2018-01-21T21:50:33.274Z,79.27
2018-01-21T21:53:03.276Z,77.60
2018-01-21T21:55:35.818Z,71.97
2018-01-21T21:58:11.519Z,62.83
2018-01-21T22:00:41.663Z,71.57
2018-01-21T22:03:12.472Z,65.33
2018-01-21T22:05:42.333Z,73.63
2018-01-21T22:08:12.576Z,71.00
2018-01-21T22:10:43.137Z,65.87
2018-01-21T22:13:12.949Z,69.87
2018-01-21T22:15:42.863Z,70.97
2018-01-21T22:18:12.731Z,65.77
2018-01-21T22:20:42.700Z,75.23
2018-01-21T22:23:12.542Z,68.73
2018-01-21T22:25:42.384Z,71.63
2018-01-21T22:28:12.333Z,70.30
2018-01-21T22:30:42.302Z,69.00
2018-01-21T22:33:12.061Z,71.27
2018-01-21T22:35:41.907Z,61.37
2018-01-21T22:38:13.340Z,64.17
2018-01-21T22:40:43.440Z,66.70
2018-01-21T22:43:13.149Z,72.40
2018-01-21T22:45:43.011Z,77.10
2018-01-21T22:48:13.138Z,63.40
2018-01-21T22:50:43.302Z,73.30
2018-01-21T22:53:13.011Z,69.27
2018-01-21T22:55:44.316Z,61.90
2018-01-21T22:58:14.222Z,76.00
2018-01-21T23:00:44.495Z,60.37
2018-01-21T23:03:14.255Z,69.33
2018-01-21T23:05:44.017Z,63.90
2018-01-21T23:08:13.729Z,63.73
2018-01-21T23:10:43.845Z,64.10
2018-01-21T23:13:13.862Z,63.00
2018-01-21T23:15:44.698Z,63.63
2018-01-21T23:18:14.557Z,62.20
2018-01-21T23:21:04.500Z,68.53
2018-01-21T23:23:34.314Z,66.37
2018-01-21T23:26:05.026Z,60.40
2018-01-21T23:28:34.934Z,65.73
2018-01-21T23:31:05.073Z,68.80
2018-01-21T23:33:35.090Z,72.13
2018-01-21T23:36:04.907Z,63.70
2018-01-21T23:38:34.613Z,63.10
2018-01-21T23:41:05.437Z,60.27
2018-01-21T23:43:35.465Z,64.90
2018-01-21T23:46:06.812Z,61.90
2018-01-21T23:48:36.776Z,52.00
2018-01-21T23:51:06.744Z,69.00
2018-01-21T23:53:36.560Z,69.80
2018-01-21T23:56:06.400Z,61.90
2018-01-21T23:58:36.181Z,61.97
